createdAt,value
2023-03-20T00:03:21.730Z,8.50
2023-03-20T00:07:23.424Z,8.50
2023-03-20T00:11:33.322Z,8.50
2023-03-20T00:15:39.382Z,8.30
2023-03-20T00:19:40.956Z,8.30
2023-03-20T00:23:42.629Z,8.30
2023-03-20T00:27:44.930Z,8.20
2023-03-20T00:31:46.613Z,8.30
2023-03-20T00:35:48.358Z,8.20
2023-03-20T00:39:50.368Z,8.20
2023-03-20T00:43:54.886Z,8.10
2023-03-20T00:47:57.630Z,8.10
2023-03-20T00:51:59.677Z,8.10
2023-03-20T00:56:01.582Z,8.10
2023-03-20T01:00:19.349Z,8.10
2023-03-20T01:04:21.142Z,8.10
2023-03-20T01:08:26.598Z,8.10
2023-03-20T01:12:28.267Z,8.10
2023-03-20T01:16:30.228Z,8.10
2023-03-20T01:20:32.186Z,8.10
2023-03-20T01:24:33.804Z,8.20
2023-03-20T01:28:35.799Z,8.20
2023-03-20T01:32:37.513Z,8.20
2023-03-20T01:36:40.020Z,8.10
2023-03-20T01:40:41.596Z,8.30
2023-03-20T01:44:43.275Z,8.40
2023-03-20T01:48:51.165Z,8.30
2023-03-20T01:53:00.694Z,8.40
2023-03-20T01:57:08.931Z,8.40
2023-03-20T02:01:12.036Z,8.30
2023-03-20T02:05:15.267Z,8.40
2023-03-20T02:09:17.075Z,8.30
2023-03-20T02:13:19.360Z,8.40
2023-03-20T02:17:20.981Z,8.20
2023-03-20T02:21:28.801Z,8.20
2023-03-20T02:25:39.593Z,8.20
2023-03-20T02:30:01.511Z,8.10
2023-03-20T02:34:21.792Z,8.10
2023-03-20T02:38:29.178Z,8.00
2023-03-20T02:42:43.210Z,8.00
2023-03-20T02:46:47.924Z,8.00
2023-03-20T02:51:01.120Z,8.00
2023-03-20T02:55:09.558Z,8.00
2023-03-20T02:59:16.152Z,7.90
2023-03-20T03:03:20.470Z,7.80
2023-03-20T03:07:24.156Z,7.80
2023-03-20T03:11:28.058Z,7.60
2023-03-20T03:15:32.378Z,7.70
2023-03-20T03:19:35.577Z,7.50
2023-03-20T03:23:46.970Z,7.50
2023-03-20T03:27:50.833Z,7.50
2023-03-20T03:45:28.065Z,6.90
2023-03-20T03:49:32.550Z,7.10
2023-03-20T03:53:42.711Z,7.10
2023-03-20T03:57:50.876Z,7.20
2023-03-20T04:01:53.885Z,7.10
2023-03-20T04:05:56.995Z,7.20
2023-03-20T04:09:58.678Z,7.30
2023-03-20T04:14:00.681Z,7.30
2023-03-20T04:18:02.288Z,7.30
2023-03-20T04:22:03.900Z,7.40
2023-03-20T04:26:06.188Z,7.40
2023-03-20T04:30:08.256Z,7.40
2023-03-20T04:34:10.858Z,7.40
2023-03-20T04:38:12.752Z,7.20
2023-03-20T04:42:14.380Z,7.20
2023-03-20T04:46:16.093Z,7.10
2023-03-20T04:50:17.763Z,7.10
2023-03-20T04:54:19.380Z,7.10
2023-03-20T04:58:21.091Z,7.20
2023-03-20T05:02:22.680Z,7.20
2023-03-20T05:06:24.394Z,7.10
2023-03-20T05:10:26.067Z,7.10
2023-03-20T05:14:27.666Z,7.10
2023-03-20T05:18:29.352Z,6.90
2023-03-20T05:22:30.996Z,6.40
2023-03-20T05:26:32.582Z,6.20
2023-03-20T05:30:34.652Z,6.00
2023-03-20T05:34:36.524Z,6.10
2023-03-20T05:38:38.158Z,6.30
2023-03-20T05:42:39.703Z,6.50
2023-03-20T05:46:42.046Z,6.50
2023-03-20T05:50:43.661Z,6.60
2023-03-20T05:54:45.385Z,6.50
2023-03-20T05:58:47.017Z,6.60
2023-03-20T06:02:48.661Z,6.60
2023-03-20T06:06:50.517Z,6.70
2023-03-20T06:10:52.548Z,6.80
2023-03-20T06:14:54.235Z,6.90
2023-03-20T06:18:56.062Z,6.90
2023-03-20T06:22:57.626Z,7.00
2023-03-20T06:26:59.480Z,7.00
2023-03-20T06:31:01.440Z,7.00
2023-03-20T06:35:03.216Z,7.10
2023-03-20T06:39:04.866Z,7.10
2023-03-20T06:43:06.968Z,7.10
2023-03-20T06:47:08.636Z,7.20
2023-03-20T06:51:10.208Z,7.20
2023-03-20T06:55:12.396Z,7.20
2023-03-20T06:59:14.171Z,7.20
2023-03-20T07:03:16.562Z,7.40
2023-03-20T07:07:18.829Z,7.40
2023-03-20T07:11:20.995Z,7.40
2023-03-20T07:15:22.852Z,7.40
2023-03-20T07:19:24.577Z,7.50
2023-03-20T07:23:26.681Z,7.50
2023-03-20T07:27:28.414Z,7.70
2023-03-20T07:31:31.187Z,7.60
2023-03-20T07:35:32.990Z,7.50
2023-03-20T07:39:34.669Z,7.60
2023-03-20T07:43:36.497Z,7.60
2023-03-20T07:47:38.110Z,7.60
2023-03-20T07:51:39.802Z,7.60
2023-03-20T07:55:41.412Z,7.70
2023-03-20T07:59:42.977Z,7.70
2023-03-20T08:03:44.619Z,7.90
2023-03-20T08:07:46.309Z,7.70
2023-03-20T08:11:49.421Z,7.80
2023-03-20T08:15:51.808Z,7.90
2023-03-20T08:19:53.369Z,8.00
2023-03-20T08:23:55.265Z,8.00
2023-03-20T08:27:56.964Z,8.00
2023-03-20T08:31:58.502Z,8.10
2023-03-20T08:36:00.194Z,8.20
2023-03-20T08:40:05.324Z,8.10
2023-03-20T08:44:06.937Z,8.10
2023-03-20T08:48:09.256Z,8.20
2023-03-20T08:52:11.149Z,8.30
2023-03-20T08:56:12.821Z,8.30
2023-03-20T09:00:16.811Z,8.30
2023-03-20T09:04:21.745Z,8.50
2023-03-20T09:08:23.366Z,8.80
2023-03-20T09:12:25.082Z,8.80
2023-03-20T09:16:26.933Z,8.90
2023-03-20T09:20:28.613Z,8.90
2023-03-20T09:24:31.371Z,9.00
2023-03-20T09:28:40.285Z,8.90
2023-03-20T09:32:41.886Z,9.00
2023-03-20T09:36:43.589Z,9.10
2023-03-20T09:40:48.276Z,8.90
2023-03-20T09:45:11.988Z,9.30
2023-03-20T09:49:19.628Z,9.30
2023-03-20T09:53:37.681Z,9.20
2023-03-20T09:57:44.114Z,9.20
2023-03-20T10:01:49.008Z,8.90
2023-03-20T10:05:50.590Z,9.00
2023-03-20T10:09:52.190Z,8.80
2023-03-20T10:13:59.934Z,9.10
2023-03-20T10:18:04.543Z,9.20
2023-03-20T10:22:18.287Z,9.10
2023-03-20T10:26:21.888Z,9.30
2023-03-20T10:30:36.377Z,9.30
2023-03-20T10:34:48.364Z,9.30
2023-03-20T10:39:13.690Z,9.30
2023-03-20T10:43:18.324Z,9.40
2023-03-20T10:47:21.827Z,9.50
2023-03-20T10:51:30.166Z,9.30
2023-03-20T10:55:35.483Z,9.40
2023-03-20T10:59:39.217Z,9.40
2023-03-20T11:03:41.367Z,9.50
2023-03-20T11:07:42.966Z,9.40
2023-03-20T11:11:45.884Z,9.20
2023-03-20T11:15:47.485Z,9.30
2023-03-20T11:19:51.178Z,9.00
2023-03-20T11:23:53.728Z,9.10
2023-03-20T11:27:56.200Z,9.10
2023-03-20T11:32:04.692Z,9.00
2023-03-20T11:36:28.166Z,8.90
2023-03-20T11:40:33.942Z,9.00
2023-03-20T11:44:36.816Z,9.30
2023-03-20T11:48:39.667Z,9.30
2023-03-20T11:52:41.266Z,9.20
2023-03-20T11:56:51.842Z,9.50
2023-03-20T12:00:54.532Z,9.30
2023-03-20T12:04:59.333Z,9.60
2023-03-20T12:09:02.935Z,9.50
2023-03-20T12:13:17.081Z,9.60
2023-03-20T12:17:18.780Z,9.50
2023-03-20T12:21:27.183Z,9.60
2023-03-20T12:25:37.423Z,9.30
2023-03-20T12:29:43.370Z,9.50
2023-03-20T12:33:51.305Z,9.40
2023-03-20T12:37:53.013Z,9.30
2023-03-20T12:42:18.391Z,9.50
2023-03-20T12:46:26.097Z,9.60
2023-03-20T12:50:31.745Z,9.40
2023-03-20T12:54:36.404Z,9.10
2023-03-20T12:58:44.717Z,9.50
2023-03-20T13:02:55.420Z,9.30
2023-03-20T13:07:00.804Z,9.60
2023-03-20T13:11:08.396Z,9.60
2023-03-20T13:15:21.660Z,9.90
2023-03-20T13:19:23.622Z,9.90
2023-03-20T13:23:31.817Z,10.10
2023-03-20T13:27:37.641Z,10.10
2023-03-20T13:31:48.469Z,10.20
2023-03-20T13:36:10.582Z,10.40
2023-03-20T13:40:26.887Z,10.30
2023-03-20T13:44:29.604Z,10.20
2023-03-20T13:48:31.227Z,10.40
2023-03-20T13:52:42.933Z,10.50
2023-03-20T13:57:00.919Z,10.60
2023-03-20T14:01:26.038Z,10.50
2023-03-20T14:05:28.036Z,10.80
2023-03-20T14:09:37.141Z,10.80
2023-03-20T14:13:39.035Z,10.80
2023-03-20T14:17:44.064Z,10.90
2023-03-20T14:21:47.178Z,11.00
2023-03-20T14:25:49.228Z,11.00
2023-03-20T14:29:50.894Z,10.80
2023-03-20T14:34:00.598Z,10.80
2023-03-20T14:38:02.226Z,10.90
2023-03-20T14:42:27.175Z,10.90
2023-03-20T14:46:35.267Z,10.90
2023-03-20T14:50:50.694Z,10.90
2023-03-20T14:54:53.883Z,10.90
2023-03-20T14:58:56.619Z,11.00
2023-03-20T15:03:13.841Z,10.80
2023-03-20T15:07:24.254Z,11.00
2023-03-20T15:11:29.396Z,10.80
2023-03-20T15:15:33.966Z,10.70
2023-03-20T15:19:42.084Z,10.80
2023-03-20T15:23:47.509Z,10.90
2023-03-20T15:27:49.633Z,10.90
2023-03-20T15:32:10.383Z,10.90
2023-03-20T15:36:17.172Z,10.80
2023-03-20T15:40:23.379Z,10.70
2023-03-20T15:44:28.364Z,10.70
2023-03-20T15:48:30.385Z,10.80
2023-03-20T15:52:31.950Z,10.70
2023-03-20T15:56:34.517Z,10.70
2023-03-20T16:00:39.748Z,10.70
2023-03-20T16:04:52.155Z,10.70
2023-03-20T16:08:58.528Z,10.60
2023-03-20T16:13:00.519Z,10.70
2023-03-20T16:17:03.506Z,10.70
2023-03-20T16:21:09.832Z,10.70
2023-03-20T16:25:19.188Z,10.70
2023-03-20T16:29:22.350Z,10.70
2023-03-20T16:33:27.069Z,10.70
2023-03-20T16:37:37.047Z,10.70
2023-03-20T16:41:39.285Z,10.60
2023-03-20T16:45:44.095Z,10.70
2023-03-20T16:49:50.880Z,10.70
2023-03-20T16:53:59.589Z,10.60
2023-03-20T16:58:04.630Z,10.60
2023-03-20T17:02:33.754Z,10.50
2023-03-20T17:06:36.951Z,10.40
2023-03-20T17:10:40.639Z,10.40
2023-03-20T17:14:44.996Z,10.40
2023-03-20T17:18:47.341Z,10.30
2023-03-20T17:22:49.481Z,10.40
2023-03-20T17:26:55.908Z,10.20
2023-03-20T17:30:57.548Z,10.20
2023-03-20T17:39:44.069Z,9.90
2023-03-20T17:43:45.833Z,9.90
2023-03-20T17:47:47.421Z,9.90
2023-03-20T17:51:48.971Z,10.00
2023-03-20T17:55:53.421Z,9.90
2023-03-20T17:59:55.065Z,9.90
2023-03-20T18:03:56.656Z,9.90
2023-03-20T18:07:58.566Z,9.90
2023-03-20T18:12:00.223Z,9.90
2023-03-20T18:16:01.917Z,9.90
2023-03-20T18:20:03.847Z,10.00
2023-03-20T18:24:05.772Z,9.80
2023-03-20T18:28:12.338Z,9.70
2023-03-20T18:32:14.172Z,9.70
2023-03-20T18:36:17.150Z,9.70
2023-03-20T18:40:21.070Z,9.70
2023-03-20T18:44:23.244Z,9.70
2023-03-20T18:48:26.223Z,9.70
2023-03-20T18:52:28.033Z,9.70
2023-03-20T18:56:30.221Z,9.60
2023-03-20T19:00:35.943Z,9.60
2023-03-20T19:04:37.833Z,9.60
2023-03-20T19:08:39.393Z,9.50
2023-03-20T19:12:42.174Z,9.50
2023-03-20T19:16:43.947Z,9.60
2023-03-20T19:20:48.043Z,9.60
2023-03-20T19:24:51.110Z,9.60
2023-03-20T19:28:54.078Z,9.50
2023-03-20T19:32:55.976Z,9.50
2023-03-20T19:36:57.747Z,9.60
2023-03-20T19:41:00.247Z,9.60
2023-03-20T19:45:02.300Z,9.60
2023-03-20T19:49:04.415Z,9.60
2023-03-20T19:53:07.573Z,9.50
2023-03-20T19:57:11.525Z,9.50
2023-03-20T20:01:21.313Z,9.40
2023-03-20T20:05:23.132Z,9.50
2023-03-20T20:09:24.743Z,9.60
2023-03-20T20:13:30.481Z,9.60
2023-03-20T20:17:32.045Z,9.50
2023-03-20T20:25:57.271Z,9.60
2023-03-20T20:29:59.048Z,9.60
2023-03-20T20:34:48.777Z,9.60
2023-03-20T20:38:48.219Z,9.60
2023-03-20T20:42:48.536Z,9.60
2023-03-20T20:46:50.561Z,9.50
2023-03-20T20:50:59.373Z,9.50
2023-03-20T20:55:21.142Z,9.60
2023-03-20T20:59:23.541Z,9.50
2023-03-20T21:03:25.698Z,9.40
2023-03-20T21:07:28.055Z,9.40
2023-03-20T21:11:29.892Z,9.40
2023-03-20T21:15:35.601Z,9.40
2023-03-20T21:19:38.861Z,9.40
2023-03-20T21:23:41.010Z,9.40
2023-03-20T21:27:42.816Z,9.50
2023-03-20T21:31:45.593Z,9.50
2023-03-20T21:35:48.582Z,9.50
2023-03-20T21:39:51.432Z,9.50
2023-03-20T21:43:53.250Z,9.50
2023-03-20T21:48:31.590Z,9.50
2023-03-20T21:53:15.938Z,9.50
2023-03-20T22:20:09.271Z,9.30
2023-03-20T22:24:31.256Z,9.40
2023-03-20T22:28:49.814Z,9.30
2023-03-20T22:33:29.887Z,9.30
2023-03-20T22:37:34.423Z,9.30
2023-03-20T22:45:38.388Z,9.30
2023-03-20T22:49:44.364Z,9.30
2023-03-20T22:53:46.121Z,9.40
2023-03-20T22:58:05.730Z,9.20
2023-03-20T23:02:09.144Z,9.30
2023-03-20T23:06:17.380Z,9.30
2023-03-20T23:10:18.979Z,9.30
2023-03-20T23:14:22.344Z,9.30
2023-03-20T23:18:24.114Z,9.30
2023-03-20T23:22:25.795Z,9.40
2023-03-20T23:26:27.419Z,9.40
2023-03-20T23:30:38.052Z,9.40
2023-03-20T23:34:45.638Z,9.40
2023-03-20T23:38:47.256Z,9.50
2023-03-20T23:42:48.843Z,9.50
2023-03-20T23:46:50.507Z,9.50
2023-03-20T23:50:53.572Z,9.50
2023-03-20T23:54:55.768Z,9.50
2023-03-20T23:59:03.229Z,9.50
